38NC weather

Public forecast

Using degrees Fahrenheit for public forecast. Weather courtesy of forecast.io.

Closest aviation weather report (METAR) to BHH Aviation Airport

Closest report is Rockingham County NC Shiloh Airport, 12.6 nm (23.3 km) W. Retrieved 2020/08/09 08:35 UTC (0 seconds ago):

KSIF 090835Z AUTO 00000KT 4SM BR CLR 21/21 A3015 RMK AO2 T02100210

Closest aviation forecast (TAF) to BHH Aviation Airport

Closest forecast is Danville Regional Airport, 13.8 nm (25.6 km) ENE. Retrieved 2020/08/09 06:45 UTC (2 hours ago):

TAF KDAN 090541Z 0906/1006 00000KT 5SM BR SCT005 BKN025 FM090800 00000KT 2SM BR OVC003 TEMPO 0910/0912 1/4SM FG VV001 FM091300 VRB03KT P6SM BKN015 FM091600 21005KT P6SM BKN050 FM100300 16003KT P6SM SKC